sensor_id;sensor_type;location;lat;lon;timestamp;P1;durP1;ratioP1;P2;durP2;ratioP2
44512;SDS011;30219;50.588;9.504;2022-12-07T00:01:07;12.13;;;7.43;;
44512;SDS011;30219;50.588;9.504;2022-12-07T00:03:37;15.25;;;8.35;;
44512;SDS011;30219;50.588;9.504;2022-12-07T00:06:05;12.02;;;7.40;;
44512;SDS011;30219;50.588;9.504;2022-12-07T00:08:33;14.73;;;8.15;;
44512;SDS011;30219;50.588;9.504;2022-12-07T00:11:03;15.70;;;8.20;;
44512;SDS011;30219;50.588;9.504;2022-12-07T00:13:30;12.40;;;7.60;;
44512;SDS011;30219;50.588;9.504;2022-12-07T00:16:00;17.58;;;8.50;;
44512;SDS011;30219;50.588;9.504;2022-12-07T00:18:40;12.68;;;7.50;;
44512;SDS011;30219;50.588;9.504;2022-12-07T00:23:36;15.32;;;6.93;;
44512;SDS011;30219;50.588;9.504;2022-12-07T00:26:03;12.02;;;7.07;;
44512;SDS011;30219;50.588;9.504;2022-12-07T00:28:33;13.45;;;7.30;;
44512;SDS011;30219;50.588;9.504;2022-12-07T00:31:03;11.95;;;7.68;;
44512;SDS011;30219;50.588;9.504;2022-12-07T00:33:33;14.82;;;8.32;;
44512;SDS011;30219;50.588;9.504;2022-12-07T00:36:00;11.90;;;7.22;;
44512;SDS011;30219;50.588;9.504;2022-12-07T00:38:30;14.02;;;7.78;;
44512;SDS011;30219;50.588;9.504;2022-12-07T00:40:57;13.13;;;7.40;;
44512;SDS011;30219;50.588;9.504;2022-12-07T00:43:24;14.30;;;7.65;;
44512;SDS011;30219;50.588;9.504;2022-12-07T00:45:50;14.52;;;7.43;;
44512;SDS011;30219;50.588;9.504;2022-12-07T00:48:16;13.43;;;7.95;;
44512;SDS011;30219;50.588;9.504;2022-12-07T00:50:42;14.50;;;7.35;;
44512;SDS011;30219;50.588;9.504;2022-12-07T00:53:07;18.23;;;8.35;;
44512;SDS011;30219;50.588;9.504;2022-12-07T00:55:33;15.52;;;8.32;;
44512;SDS011;30219;50.588;9.504;2022-12-07T00:57:59;15.10;;;8.63;;
44512;SDS011;30219;50.588;9.504;2022-12-07T01:00:25;16.75;;;8.65;;
44512;SDS011;30219;50.588;9.504;2022-12-07T01:02:50;18.10;;;9.23;;
44512;SDS011;30219;50.588;9.504;2022-12-07T01:05:17;18.90;;;10.05;;
44512;SDS011;30219;50.588;9.504;2022-12-07T01:07:43;17.17;;;9.40;;
44512;SDS011;30219;50.588;9.504;2022-12-07T01:10:08;17.35;;;10.75;;
44512;SDS011;30219;50.588;9.504;2022-12-07T01:12:34;18.77;;;10.88;;
44512;SDS011;30219;50.588;9.504;2022-12-07T01:17:32;17.83;;;8.35;;
44512;SDS011;30219;50.588;9.504;2022-12-07T01:19:58;19.83;;;10.75;;
44512;SDS011;30219;50.588;9.504;2022-12-07T01:22:23;20.45;;;11.15;;
44512;SDS011;30219;50.588;9.504;2022-12-07T01:24:49;19.88;;;12.10;;
44512;SDS011;30219;50.588;9.504;2022-12-07T01:27:14;24.58;;;13.50;;
44512;SDS011;30219;50.588;9.504;2022-12-07T01:29:40;26.08;;;13.48;;
44512;SDS011;30219;50.588;9.504;2022-12-07T01:32:06;23.58;;;13.20;;
44512;SDS011;30219;50.588;9.504;2022-12-07T01:34:31;24.65;;;13.35;;
44512;SDS011;30219;50.588;9.504;2022-12-07T01:36:57;24.70;;;13.93;;
44512;SDS011;30219;50.588;9.504;2022-12-07T01:39:23;24.98;;;14.43;;
44512;SDS011;30219;50.588;9.504;2022-12-07T01:41:48;23.98;;;13.88;;
44512;SDS011;30219;50.588;9.504;2022-12-07T01:49:26;28.65;;;14.43;;
44512;SDS011;30219;50.588;9.504;2022-12-07T01:51:58;25.02;;;13.55;;
44512;SDS011;30219;50.588;9.504;2022-12-07T01:54:46;23.95;;;12.82;;
44512;SDS011;30219;50.588;9.504;2022-12-07T01:57:14;24.98;;;12.65;;
44512;SDS011;30219;50.588;9.504;2022-12-07T01:59:42;25.77;;;13.48;;
44512;SDS011;30219;50.588;9.504;2022-12-07T02:02:12;26.23;;;13.75;;
44512;SDS011;30219;50.588;9.504;2022-12-07T02:04:48;21.63;;;12.13;;
44512;SDS011;30219;50.588;9.504;2022-12-07T02:07:15;30.10;;;13.82;;
44512;SDS011;30219;50.588;9.504;2022-12-07T02:09:41;24.52;;;12.68;;
44512;SDS011;30219;50.588;9.504;2022-12-07T02:12:07;29.17;;;13.05;;
44512;SDS011;30219;50.588;9.504;2022-12-07T02:14:32;23.13;;;12.90;;
44512;SDS011;30219;50.588;9.504;2022-12-07T02:17:12;25.35;;;13.57;;
44512;SDS011;30219;50.588;9.504;2022-12-07T02:28:18;24.92;;;14.55;;
44512;SDS011;30219;50.588;9.504;2022-12-07T02:30:54;27.33;;;14.00;;
44512;SDS011;30219;50.588;9.504;2022-12-07T02:33:28;26.17;;;14.30;;
44512;SDS011;30219;50.588;9.504;2022-12-07T02:36:05;23.40;;;12.95;;
44512;SDS011;30219;50.588;9.504;2022-12-07T02:41:24;27.67;;;14.45;;
44512;SDS011;30219;50.588;9.504;2022-12-07T02:43:55;25.08;;;14.02;;
44512;SDS011;30219;50.588;9.504;2022-12-07T02:46:25;23.13;;;13.45;;
44512;SDS011;30219;50.588;9.504;2022-12-07T02:48:58;23.70;;;12.65;;
44512;SDS011;30219;50.588;9.504;2022-12-07T02:51:24;23.65;;;12.80;;
44512;SDS011;30219;50.588;9.504;2022-12-07T02:53:50;25.90;;;15.00;;
44512;SDS011;30219;50.588;9.504;2022-12-07T02:56:37;28.13;;;14.77;;
44512;SDS011;30219;50.588;9.504;2022-12-07T03:04:52;24.38;;;13.35;;
44512;SDS011;30219;50.588;9.504;2022-12-07T03:10:38;22.25;;;13.00;;
44512;SDS011;30219;50.588;9.504;2022-12-07T03:18:33;18.15;;;10.40;;
44512;SDS011;30219;50.588;9.504;2022-12-07T03:21:05;18.38;;;10.27;;
44512;SDS011;30219;50.588;9.504;2022-12-07T03:23:36;19.33;;;11.38;;
44512;SDS011;30219;50.588;9.504;2022-12-07T03:26:04;18.35;;;10.60;;
44512;SDS011;30219;50.588;9.504;2022-12-07T03:28:33;19.00;;;10.35;;
44512;SDS011;30219;50.588;9.504;2022-12-07T03:31:03;17.58;;;10.30;;
44512;SDS011;30219;50.588;9.504;2022-12-07T03:33:39;18.23;;;9.55;;
44512;SDS011;30219;50.588;9.504;2022-12-07T03:36:08;15.38;;;9.27;;
44512;SDS011;30219;50.588;9.504;2022-12-07T03:38:54;16.75;;;10.35;;
44512;SDS011;30219;50.588;9.504;2022-12-07T03:41:28;21.85;;;11.38;;
44512;SDS011;30219;50.588;9.504;2022-12-07T03:43:56;20.42;;;10.88;;
44512;SDS011;30219;50.588;9.504;2022-12-07T03:51:32;15.68;;;8.40;;
44512;SDS011;30219;50.588;9.504;2022-12-07T03:56:53;17.83;;;10.30;;
44512;SDS011;30219;50.588;9.504;2022-12-07T03:59:20;21.45;;;10.95;;
44512;SDS011;30219;50.588;9.504;2022-12-07T04:01:51;19.73;;;12.02;;
44512;SDS011;30219;50.588;9.504;2022-12-07T04:06:45;18.95;;;11.43;;
44512;SDS011;30219;50.588;9.504;2022-12-07T04:09:10;20.75;;;11.63;;
44512;SDS011;30219;50.588;9.504;2022-12-07T04:11:36;24.83;;;12.35;;
44512;SDS011;30219;50.588;9.504;2022-12-07T04:14:01;19.83;;;10.68;;
44512;SDS011;30219;50.588;9.504;2022-12-07T04:16:49;18.50;;;10.95;;
44512;SDS011;30219;50.588;9.504;2022-12-07T04:19:18;21.98;;;11.68;;
44512;SDS011;30219;50.588;9.504;2022-12-07T04:21:45;18.92;;;10.93;;
44512;SDS011;30219;50.588;9.504;2022-12-07T04:24:11;20.30;;;11.77;;
44512;SDS011;30219;50.588;9.504;2022-12-07T04:26:39;21.85;;;10.88;;
44512;SDS011;30219;50.588;9.504;2022-12-07T04:29:05;19.10;;;10.68;;
44512;SDS011;30219;50.588;9.504;2022-12-07T04:31:30;20.05;;;11.15;;
44512;SDS011;30219;50.588;9.504;2022-12-07T04:33:56;21.23;;;12.85;;
44512;SDS011;30219;50.588;9.504;2022-12-07T04:36:21;17.65;;;10.48;;
44512;SDS011;30219;50.588;9.504;2022-12-07T04:38:47;19.92;;;11.25;;
44512;SDS011;30219;50.588;9.504;2022-12-07T04:41:13;21.23;;;11.60;;
44512;SDS011;30219;50.588;9.504;2022-12-07T04:43:38;20.15;;;10.70;;
44512;SDS011;30219;50.588;9.504;2022-12-07T04:46:04;21.42;;;10.95;;
44512;SDS011;30219;50.588;9.504;2022-12-07T04:48:30;17.85;;;10.27;;
44512;SDS011;30219;50.588;9.504;2022-12-07T04:50:55;21.73;;;12.00;;
44512;SDS011;30219;50.588;9.504;2022-12-07T04:53:21;20.65;;;11.55;;
44512;SDS011;30219;50.588;9.504;2022-12-07T04:55:47;19.95;;;11.20;;
44512;SDS011;30219;50.588;9.504;2022-12-07T04:58:13;25.42;;;12.55;;
44512;SDS011;30219;50.588;9.504;2022-12-07T05:00:39;21.52;;;12.63;;
44512;SDS011;30219;50.588;9.504;2022-12-07T05:03:05;25.60;;;12.73;;
44512;SDS011;30219;50.588;9.504;2022-12-07T05:05:30;21.00;;;11.88;;
44512;SDS011;30219;50.588;9.504;2022-12-07T05:07:56;23.48;;;12.00;;
44512;SDS011;30219;50.588;9.504;2022-12-07T05:10:21;21.60;;;11.82;;
44512;SDS011;30219;50.588;9.504;2022-12-07T05:12:47;20.73;;;11.38;;
44512;SDS011;30219;50.588;9.504;2022-12-07T05:15:13;19.15;;;10.85;;
44512;SDS011;30219;50.588;9.504;2022-12-07T05:17:39;21.05;;;9.70;;
44512;SDS011;30219;50.588;9.504;2022-12-07T05:20:05;16.00;;;8.88;;
44512;SDS011;30219;50.588;9.504;2022-12-07T05:22:33;18.67;;;9.77;;
44512;SDS011;30219;50.588;9.504;2022-12-07T05:24:58;16.25;;;9.07;;
44512;SDS011;30219;50.588;9.504;2022-12-07T05:27:24;16.50;;;9.57;;
44512;SDS011;30219;50.588;9.504;2022-12-07T05:29:50;14.48;;;8.25;;
44512;SDS011;30219;50.588;9.504;2022-12-07T05:32:16;15.05;;;8.65;;
44512;SDS011;30219;50.588;9.504;2022-12-07T05:34:42;14.35;;;8.13;;
44512;SDS011;30219;50.588;9.504;2022-12-07T05:37:08;14.18;;;8.50;;
44512;SDS011;30219;50.588;9.504;2022-12-07T05:39:33;12.40;;;7.47;;
44512;SDS011;30219;50.588;9.504;2022-12-07T05:41:59;11.65;;;7.50;;
44512;SDS011;30219;50.588;9.504;2022-12-07T05:44:37;11.95;;;7.53;;
44512;SDS011;30219;50.588;9.504;2022-12-07T05:47:06;14.35;;;8.57;;
44512;SDS011;30219;50.588;9.504;2022-12-07T05:49:32;12.70;;;7.70;;
44512;SDS011;30219;50.588;9.504;2022-12-07T05:51:58;13.88;;;7.78;;
44512;SDS011;30219;50.588;9.504;2022-12-07T05:54:24;15.02;;;8.73;;
44512;SDS011;30219;50.588;9.504;2022-12-07T05:56:49;13.23;;;7.63;;
44512;SDS011;30219;50.588;9.504;2022-12-07T05:59:15;13.50;;;7.72;;
44512;SDS011;30219;50.588;9.504;2022-12-07T06:01:47;14.88;;;7.78;;
44512;SDS011;30219;50.588;9.504;2022-12-07T06:04:16;11.43;;;7.05;;
44512;SDS011;30219;50.588;9.504;2022-12-07T06:06:42;11.07;;;7.20;;
44512;SDS011;30219;50.588;9.504;2022-12-07T06:09:07;11.07;;;7.03;;
44512;SDS011;30219;50.588;9.504;2022-12-07T06:11:33;14.15;;;7.90;;
44512;SDS011;30219;50.588;9.504;2022-12-07T06:14:17;12.50;;;7.60;;
44512;SDS011;30219;50.588;9.504;2022-12-07T06:16:43;13.57;;;7.70;;
44512;SDS011;30219;50.588;9.504;2022-12-07T06:19:08;16.02;;;8.55;;
44512;SDS011;30219;50.588;9.504;2022-12-07T06:21:34;13.40;;;8.65;;
44512;SDS011;30219;50.588;9.504;2022-12-07T06:23:59;15.00;;;8.38;;
44512;SDS011;30219;50.588;9.504;2022-12-07T06:26:25;12.93;;;8.30;;
44512;SDS011;30219;50.588;9.504;2022-12-07T06:28:51;15.63;;;9.30;;
44512;SDS011;30219;50.588;9.504;2022-12-07T06:31:16;18.88;;;10.57;;
44512;SDS011;30219;50.588;9.504;2022-12-07T06:33:42;15.52;;;9.23;;
44512;SDS011;30219;50.588;9.504;2022-12-07T06:36:08;14.95;;;9.60;;
44512;SDS011;30219;50.588;9.504;2022-12-07T06:38:34;15.25;;;9.20;;
44512;SDS011;30219;50.588;9.504;2022-12-07T06:40:59;12.25;;;7.85;;
44512;SDS011;30219;50.588;9.504;2022-12-07T06:43:25;15.88;;;8.43;;
44512;SDS011;30219;50.588;9.504;2022-12-07T06:45:50;16.02;;;9.38;;
44512;SDS011;30219;50.588;9.504;2022-12-07T06:48:16;16.80;;;9.68;;
44512;SDS011;30219;50.588;9.504;2022-12-07T06:50:44;14.48;;;8.35;;
44512;SDS011;30219;50.588;9.504;2022-12-07T06:53:10;16.75;;;9.02;;
44512;SDS011;30219;50.588;9.504;2022-12-07T06:55:35;15.68;;;9.25;;
44512;SDS011;30219;50.588;9.504;2022-12-07T06:58:01;13.48;;;9.57;;
44512;SDS011;30219;50.588;9.504;2022-12-07T07:00:27;9.30;;;6.10;;
44512;SDS011;30219;50.588;9.504;2022-12-07T07:02:53;11.27;;;7.40;;
44512;SDS011;30219;50.588;9.504;2022-12-07T07:05:18;10.95;;;6.78;;
44512;SDS011;30219;50.588;9.504;2022-12-07T07:07:46;11.95;;;7.68;;
44512;SDS011;30219;50.588;9.504;2022-12-07T07:10:12;15.35;;;7.20;;
44512;SDS011;30219;50.588;9.504;2022-12-07T07:12:38;10.15;;;6.70;;
44512;SDS011;30219;50.588;9.504;2022-12-07T07:15:04;10.65;;;6.93;;
44512;SDS011;30219;50.588;9.504;2022-12-07T07:17:30;11.85;;;6.78;;
44512;SDS011;30219;50.588;9.504;2022-12-07T07:19:56;10.63;;;6.22;;
44512;SDS011;30219;50.588;9.504;2022-12-07T07:22:21;10.80;;;6.90;;
44512;SDS011;30219;50.588;9.504;2022-12-07T07:24:47;13.25;;;6.80;;
44512;SDS011;30219;50.588;9.504;2022-12-07T07:27:12;11.23;;;7.13;;
44512;SDS011;30219;50.588;9.504;2022-12-07T07:29:38;11.02;;;6.97;;
44512;SDS011;30219;50.588;9.504;2022-12-07T07:32:03;11.93;;;7.18;;
44512;SDS011;30219;50.588;9.504;2022-12-07T07:34:29;13.63;;;8.00;;
44512;SDS011;30219;50.588;9.504;2022-12-07T07:36:55;16.35;;;8.18;;
44512;SDS011;30219;50.588;9.504;2022-12-07T07:39:20;14.35;;;7.38;;
44512;SDS011;30219;50.588;9.504;2022-12-07T07:41:46;13.63;;;8.23;;
44512;SDS011;30219;50.588;9.504;2022-12-07T07:44:12;16.58;;;9.65;;
44512;SDS011;30219;50.588;9.504;2022-12-07T07:46:37;14.60;;;8.07;;
44512;SDS011;30219;50.588;9.504;2022-12-07T07:49:03;15.57;;;8.82;;
44512;SDS011;30219;50.588;9.504;2022-12-07T07:51:28;16.08;;;9.32;;
44512;SDS011;30219;50.588;9.504;2022-12-07T07:53:54;13.38;;;7.40;;
44512;SDS011;30219;50.588;9.504;2022-12-07T07:56:19;14.27;;;7.45;;
44512;SDS011;30219;50.588;9.504;2022-12-07T07:58:45;12.23;;;7.22;;
44512;SDS011;30219;50.588;9.504;2022-12-07T08:01:11;14.55;;;7.47;;
44512;SDS011;30219;50.588;9.504;2022-12-07T08:03:38;14.35;;;8.43;;
44512;SDS011;30219;50.588;9.504;2022-12-07T08:06:04;13.20;;;7.47;;
44512;SDS011;30219;50.588;9.504;2022-12-07T08:08:30;12.60;;;7.40;;
44512;SDS011;30219;50.588;9.504;2022-12-07T08:10:55;14.07;;;8.18;;
44512;SDS011;30219;50.588;9.504;2022-12-07T08:13:21;13.68;;;7.50;;
44512;SDS011;30219;50.588;9.504;2022-12-07T08:15:47;12.75;;;7.32;;
44512;SDS011;30219;50.588;9.504;2022-12-07T08:18:13;12.35;;;7.50;;
44512;SDS011;30219;50.588;9.504;2022-12-07T08:20:40;13.25;;;7.30;;
44512;SDS011;30219;50.588;9.504;2022-12-07T08:23:06;13.85;;;6.78;;
44512;SDS011;30219;50.588;9.504;2022-12-07T08:25:33;12.55;;;7.35;;
44512;SDS011;30219;50.588;9.504;2022-12-07T08:27:59;11.77;;;7.80;;
44512;SDS011;30219;50.588;9.504;2022-12-07T08:30:25;10.98;;;6.95;;
44512;SDS011;30219;50.588;9.504;2022-12-07T08:32:51;13.23;;;7.55;;
44512;SDS011;30219;50.588;9.504;2022-12-07T08:35:17;41.90;;;18.88;;
44512;SDS011;30219;50.588;9.504;2022-12-07T08:37:43;56.42;;;25.42;;
44512;SDS011;30219;50.588;9.504;2022-12-07T08:40:09;45.65;;;23.10;;
44512;SDS011;30219;50.588;9.504;2022-12-07T08:42:36;17.38;;;9.98;;
44512;SDS011;30219;50.588;9.504;2022-12-07T08:45:12;16.48;;;9.50;;
44512;SDS011;30219;50.588;9.504;2022-12-07T08:47:43;13.00;;;7.80;;
44512;SDS011;30219;50.588;9.504;2022-12-07T08:50:19;14.27;;;7.38;;
44512;SDS011;30219;50.588;9.504;2022-12-07T08:52:47;15.60;;;8.57;;
44512;SDS011;30219;50.588;9.504;2022-12-07T08:55:16;16.08;;;9.10;;
44512;SDS011;30219;50.588;9.504;2022-12-07T08:57:41;11.80;;;7.40;;
44512;SDS011;30219;50.588;9.504;2022-12-07T09:00:08;16.10;;;8.45;;
44512;SDS011;30219;50.588;9.504;2022-12-07T09:02:34;27.48;;;13.70;;
44512;SDS011;30219;50.588;9.504;2022-12-07T09:04:59;20.90;;;11.75;;
44512;SDS011;30219;50.588;9.504;2022-12-07T09:07:25;14.10;;;7.00;;
44512;SDS011;30219;50.588;9.504;2022-12-07T09:09:52;10.98;;;6.13;;
44512;SDS011;30219;50.588;9.504;2022-12-07T09:12:17;10.90;;;5.45;;
44512;SDS011;30219;50.588;9.504;2022-12-07T09:14:43;9.93;;;6.20;;
44512;SDS011;30219;50.588;9.504;2022-12-07T09:17:09;13.18;;;5.65;;
44512;SDS011;30219;50.588;9.504;2022-12-07T09:19:37;11.40;;;6.50;;
44512;SDS011;30219;50.588;9.504;2022-12-07T09:22:03;10.90;;;5.22;;
44512;SDS011;30219;50.588;9.504;2022-12-07T09:24:29;10.00;;;5.40;;
44512;SDS011;30219;50.588;9.504;2022-12-07T09:26:58;10.45;;;5.00;;
44512;SDS011;30219;50.588;9.504;2022-12-07T09:29:24;13.73;;;6.55;;
44512;SDS011;30219;50.588;9.504;2022-12-07T09:31:50;8.95;;;5.30;;
44512;SDS011;30219;50.588;9.504;2022-12-07T09:34:16;11.25;;;5.38;;
44512;SDS011;30219;50.588;9.504;2022-12-07T09:36:42;14.23;;;6.03;;
44512;SDS011;30219;50.588;9.504;2022-12-07T09:39:08;10.52;;;5.30;;
44512;SDS011;30219;50.588;9.504;2022-12-07T09:41:36;10.10;;;4.80;;
44512;SDS011;30219;50.588;9.504;2022-12-07T09:44:05;11.57;;;5.38;;
44512;SDS011;30219;50.588;9.504;2022-12-07T09:46:35;8.88;;;4.18;;
44512;SDS011;30219;50.588;9.504;2022-12-07T09:49:03;12.98;;;4.45;;
44512;SDS011;30219;50.588;9.504;2022-12-07T09:51:30;7.35;;;3.60;;
44512;SDS011;30219;50.588;9.504;2022-12-07T09:53:56;8.98;;;3.80;;
44512;SDS011;30219;50.588;9.504;2022-12-07T09:56:24;6.82;;;3.63;;
44512;SDS011;30219;50.588;9.504;2022-12-07T09:58:51;12.20;;;4.20;;
44512;SDS011;30219;50.588;9.504;2022-12-07T10:01:24;8.18;;;3.38;;
44512;SDS011;30219;50.588;9.504;2022-12-07T10:06:19;7.85;;;3.75;;
44512;SDS011;30219;50.588;9.504;2022-12-07T10:08:45;7.75;;;2.92;;
44512;SDS011;30219;50.588;9.504;2022-12-07T10:11:11;5.60;;;3.10;;
44512;SDS011;30219;50.588;9.504;2022-12-07T10:13:40;5.32;;;2.70;;
44512;SDS011;30219;50.588;9.504;2022-12-07T10:16:25;5.90;;;2.67;;
44512;SDS011;30219;50.588;9.504;2022-12-07T10:19:18;7.30;;;3.13;;
44512;SDS011;30219;50.588;9.504;2022-12-07T10:24:38;10.68;;;3.88;;
44512;SDS011;30219;50.588;9.504;2022-12-07T10:27:17;8.98;;;4.13;;
44512;SDS011;30219;50.588;9.504;2022-12-07T10:29:50;8.27;;;3.38;;
44512;SDS011;30219;50.588;9.504;2022-12-07T10:34:43;15.80;;;5.05;;
44512;SDS011;30219;50.588;9.504;2022-12-07T10:44:46;9.52;;;3.95;;
44512;SDS011;30219;50.588;9.504;2022-12-07T10:50:45;12.95;;;4.60;;
44512;SDS011;30219;50.588;9.504;2022-12-07T11:05:11;11.02;;;4.68;;
44512;SDS011;30219;50.588;9.504;2022-12-07T11:07:48;10.05;;;3.78;;
44512;SDS011;30219;50.588;9.504;2022-12-07T11:10:26;14.05;;;4.32;;
44512;SDS011;30219;50.588;9.504;2022-12-07T11:13:11;10.45;;;4.40;;
44512;SDS011;30219;50.588;9.504;2022-12-07T11:16:16;10.02;;;4.50;;
44512;SDS011;30219;50.588;9.504;2022-12-07T11:18:51;9.18;;;3.90;;
44512;SDS011;30219;50.588;9.504;2022-12-07T11:24:16;11.32;;;4.43;;
44512;SDS011;30219;50.588;9.504;2022-12-07T11:26:52;11.48;;;3.72;;
44512;SDS011;30219;50.588;9.504;2022-12-07T11:29:44;8.00;;;4.20;;
44512;SDS011;30219;50.588;9.504;2022-12-07T11:35:08;10.13;;;4.15;;
44512;SDS011;30219;50.588;9.504;2022-12-07T11:37:45;9.90;;;3.38;;
44512;SDS011;30219;50.588;9.504;2022-12-07T11:40:17;8.65;;;3.30;;
44512;SDS011;30219;50.588;9.504;2022-12-07T11:45:41;4.88;;;2.95;;
44512;SDS011;30219;50.588;9.504;2022-12-07T11:48:14;8.77;;;3.58;;
44512;SDS011;30219;50.588;9.504;2022-12-07T11:50:50;10.93;;;3.17;;
44512;SDS011;30219;50.588;9.504;2022-12-07T11:56:11;12.50;;;3.85;;
44512;SDS011;30219;50.588;9.504;2022-12-07T12:04:01;11.93;;;4.60;;
44512;SDS011;30219;50.588;9.504;2022-12-07T12:06:38;12.43;;;3.47;;
44512;SDS011;30219;50.588;9.504;2022-12-07T12:14:42;7.78;;;3.75;;
44512;SDS011;30219;50.588;9.504;2022-12-07T12:20:19;6.60;;;3.05;;
44512;SDS011;30219;50.588;9.504;2022-12-07T12:23:15;6.93;;;2.60;;
44512;SDS011;30219;50.588;9.504;2022-12-07T12:25:48;9.80;;;2.83;;
44512;SDS011;30219;50.588;9.504;2022-12-07T12:31:04;3.90;;;2.23;;
44512;SDS011;30219;50.588;9.504;2022-12-07T12:33:33;10.77;;;5.13;;
44512;SDS011;30219;50.588;9.504;2022-12-07T12:38:48;13.25;;;6.03;;
44512;SDS011;30219;50.588;9.504;2022-12-07T12:44:01;57.70;;;25.75;;
44512;SDS011;30219;50.588;9.504;2022-12-07T12:46:45;28.90;;;13.93;;
44512;SDS011;30219;50.588;9.504;2022-12-07T12:51:46;9.40;;;2.45;;
44512;SDS011;30219;50.588;9.504;2022-12-07T12:56:54;3.95;;;2.15;;
44512;SDS011;30219;50.588;9.504;2022-12-07T13:13:25;6.85;;;2.85;;
44512;SDS011;30219;50.588;9.504;2022-12-07T13:28:50;5.65;;;1.73;;
44512;SDS011;30219;50.588;9.504;2022-12-07T13:36:59;4.43;;;1.95;;
44512;SDS011;30219;50.588;9.504;2022-12-07T13:39:32;6.68;;;2.60;;
44512;SDS011;30219;50.588;9.504;2022-12-07T13:41:59;8.35;;;1.98;;
44512;SDS011;30219;50.588;9.504;2022-12-07T13:44:39;6.80;;;2.67;;
44512;SDS011;30219;50.588;9.504;2022-12-07T13:47:14;5.00;;;2.40;;
44512;SDS011;30219;50.588;9.504;2022-12-07T13:49:52;7.38;;;2.65;;
44512;SDS011;30219;50.588;9.504;2022-12-07T13:52:29;7.30;;;2.55;;
44512;SDS011;30219;50.588;9.504;2022-12-07T13:54:56;7.28;;;2.20;;
44512;SDS011;30219;50.588;9.504;2022-12-07T13:57:24;7.45;;;2.60;;
44512;SDS011;30219;50.588;9.504;2022-12-07T13:59:51;11.00;;;3.38;;
44512;SDS011;30219;50.588;9.504;2022-12-07T14:02:30;11.48;;;2.78;;
44512;SDS011;30219;50.588;9.504;2022-12-07T14:05:09;6.75;;;2.30;;
44512;SDS011;30219;50.588;9.504;2022-12-07T14:07:58;6.07;;;2.20;;
44512;SDS011;30219;50.588;9.504;2022-12-07T14:10:26;9.13;;;2.55;;
44512;SDS011;30219;50.588;9.504;2022-12-07T14:12:54;3.83;;;1.88;;
44512;SDS011;30219;50.588;9.504;2022-12-07T14:15:30;8.88;;;1.92;;
44512;SDS011;30219;50.588;9.504;2022-12-07T14:17:58;7.28;;;2.70;;
44512;SDS011;30219;50.588;9.504;2022-12-07T14:20:38;7.63;;;3.83;;
44512;SDS011;30219;50.588;9.504;2022-12-07T14:23:06;11.95;;;5.72;;
44512;SDS011;30219;50.588;9.504;2022-12-07T14:25:49;9.95;;;4.35;;
44512;SDS011;30219;50.588;9.504;2022-12-07T14:28:26;7.65;;;3.33;;
44512;SDS011;30219;50.588;9.504;2022-12-07T14:30:54;5.55;;;3.30;;
44512;SDS011;30219;50.588;9.504;2022-12-07T14:33:19;6.93;;;3.80;;
44512;SDS011;30219;50.588;9.504;2022-12-07T14:35:46;8.02;;;2.90;;
44512;SDS011;30219;50.588;9.504;2022-12-07T14:38:12;9.18;;;4.30;;
44512;SDS011;30219;50.588;9.504;2022-12-07T14:40:38;7.45;;;3.10;;
44512;SDS011;30219;50.588;9.504;2022-12-07T14:43:05;11.45;;;3.78;;
44512;SDS011;30219;50.588;9.504;2022-12-07T14:48:04;7.10;;;2.78;;
44512;SDS011;30219;50.588;9.504;2022-12-07T14:50:30;7.57;;;2.63;;
44512;SDS011;30219;50.588;9.504;2022-12-07T14:53:03;9.45;;;4.03;;
44512;SDS011;30219;50.588;9.504;2022-12-07T14:55:35;6.35;;;3.05;;
44512;SDS011;30219;50.588;9.504;2022-12-07T14:58:01;7.88;;;2.22;;
44512;SDS011;30219;50.588;9.504;2022-12-07T15:00:27;8.23;;;2.50;;
44512;SDS011;30219;50.588;9.504;2022-12-07T15:02:53;5.88;;;2.63;;
44512;SDS011;30219;50.588;9.504;2022-12-07T15:05:20;6.53;;;2.70;;
44512;SDS011;30219;50.588;9.504;2022-12-07T15:07:46;6.13;;;2.90;;
44512;SDS011;30219;50.588;9.504;2022-12-07T15:10:14;9.50;;;2.83;;
44512;SDS011;30219;50.588;9.504;2022-12-07T15:12:42;13.48;;;4.15;;
44512;SDS011;30219;50.588;9.504;2022-12-07T15:15:08;9.50;;;3.50;;
44512;SDS011;30219;50.588;9.504;2022-12-07T15:17:34;6.72;;;3.28;;
44512;SDS011;30219;50.588;9.504;2022-12-07T15:20:00;6.72;;;2.85;;
44512;SDS011;30219;50.588;9.504;2022-12-07T15:22:26;10.15;;;3.15;;
44512;SDS011;30219;50.588;9.504;2022-12-07T15:24:52;8.00;;;3.72;;
44512;SDS011;30219;50.588;9.504;2022-12-07T15:27:17;5.45;;;2.45;;
44512;SDS011;30219;50.588;9.504;2022-12-07T15:29:43;6.35;;;2.67;;
44512;SDS011;30219;50.588;9.504;2022-12-07T15:32:08;5.40;;;2.40;;
44512;SDS011;30219;50.588;9.504;2022-12-07T15:34:34;8.50;;;2.45;;
44512;SDS011;30219;50.588;9.504;2022-12-07T15:37:00;7.43;;;2.97;;
44512;SDS011;30219;50.588;9.504;2022-12-07T15:39:25;7.57;;;2.70;;
44512;SDS011;30219;50.588;9.504;2022-12-07T15:41:51;8.55;;;3.17;;
44512;SDS011;30219;50.588;9.504;2022-12-07T15:44:16;8.73;;;2.92;;
44512;SDS011;30219;50.588;9.504;2022-12-07T15:47:00;8.32;;;2.47;;
44512;SDS011;30219;50.588;9.504;2022-12-07T15:49:26;8.60;;;2.90;;
44512;SDS011;30219;50.588;9.504;2022-12-07T15:51:52;9.50;;;2.45;;
44512;SDS011;30219;50.588;9.504;2022-12-07T15:54:19;6.93;;;2.42;;
44512;SDS011;30219;50.588;9.504;2022-12-07T15:56:45;9.10;;;2.60;;
44512;SDS011;30219;50.588;9.504;2022-12-07T15:59:10;6.40;;;2.40;;
44512;SDS011;30219;50.588;9.504;2022-12-07T16:01:36;8.73;;;3.28;;
44512;SDS011;30219;50.588;9.504;2022-12-07T16:04:02;7.82;;;2.63;;
44512;SDS011;30219;50.588;9.504;2022-12-07T16:06:27;5.25;;;2.50;;
44512;SDS011;30219;50.588;9.504;2022-12-07T16:08:53;9.52;;;2.95;;
44512;SDS011;30219;50.588;9.504;2022-12-07T16:11:18;9.90;;;2.95;;
44512;SDS011;30219;50.588;9.504;2022-12-07T16:13:45;6.53;;;3.08;;
44512;SDS011;30219;50.588;9.504;2022-12-07T16:16:11;7.68;;;3.53;;
44512;SDS011;30219;50.588;9.504;2022-12-07T16:18:39;13.02;;;4.38;;
44512;SDS011;30219;50.588;9.504;2022-12-07T16:21:05;12.65;;;6.32;;
44512;SDS011;30219;50.588;9.504;2022-12-07T16:23:31;12.93;;;6.18;;
44512;SDS011;30219;50.588;9.504;2022-12-07T16:26:06;10.27;;;3.85;;
44512;SDS011;30219;50.588;9.504;2022-12-07T16:28:33;15.40;;;3.90;;
44512;SDS011;30219;50.588;9.504;2022-12-07T16:31:03;8.63;;;3.67;;
44512;SDS011;30219;50.588;9.504;2022-12-07T16:33:38;10.40;;;4.40;;
44512;SDS011;30219;50.588;9.504;2022-12-07T16:36:06;14.75;;;6.82;;
44512;SDS011;30219;50.588;9.504;2022-12-07T16:38:33;18.85;;;8.73;;
44512;SDS011;30219;50.588;9.504;2022-12-07T16:40:58;19.95;;;10.63;;
44512;SDS011;30219;50.588;9.504;2022-12-07T16:43:24;17.80;;;8.40;;
44512;SDS011;30219;50.588;9.504;2022-12-07T16:45:50;14.40;;;6.20;;
44512;SDS011;30219;50.588;9.504;2022-12-07T16:48:17;10.15;;;5.97;;
44512;SDS011;30219;50.588;9.504;2022-12-07T16:50:43;14.45;;;5.68;;
44512;SDS011;30219;50.588;9.504;2022-12-07T16:53:09;16.58;;;6.35;;
44512;SDS011;30219;50.588;9.504;2022-12-07T16:55:36;10.73;;;4.68;;
44512;SDS011;30219;50.588;9.504;2022-12-07T16:58:03;10.30;;;4.28;;
44512;SDS011;30219;50.588;9.504;2022-12-07T17:00:28;9.35;;;3.65;;
44512;SDS011;30219;50.588;9.504;2022-12-07T17:02:54;7.22;;;3.33;;
44512;SDS011;30219;50.588;9.504;2022-12-07T17:05:20;9.05;;;3.85;;
44512;SDS011;30219;50.588;9.504;2022-12-07T17:07:46;11.07;;;3.60;;
44512;SDS011;30219;50.588;9.504;2022-12-07T17:10:11;9.90;;;3.75;;
44512;SDS011;30219;50.588;9.504;2022-12-07T17:12:37;7.15;;;3.00;;
44512;SDS011;30219;50.588;9.504;2022-12-07T17:15:02;11.02;;;3.25;;